Time;durP1;ratioP1;P1;durP2;ratioP2;P2;SDS_P1;SDS_P2;PMS_P1;PMS_P2;Temp;Humidity;BMP_temperature;BMP_pressure;BME280_temperature;BME280_humidity;BME280_pressure;Samples;Min_cycle;Max_cycle;Signal;HPM_P1;HPM_P2
2023/10/20 00:00:32;;;;;;;7.38;3.55;;;;;;;15.59;90.68;98382.19;6243799;28;20516;-72
2023/10/20 00:03:33;;;;;;;9.13;3.53;;;;;;;15.74;90.06;98381.56;6243117;28;20045;-72
2023/10/20 00:06:33;;;;;;;5.30;2.90;;;;;;;15.64;90.12;98369.38;6242929;28;20333;-71
2023/10/20 00:09:35;;;;;;;5.72;3.40;;;;;;;15.68;89.71;98373.31;6241735;28;20065;-72
2023/10/20 00:12:36;;;;;;;5.68;2.95;;;;;;;15.76;89.40;98377.75;6243716;28;20056;-72
2023/10/20 00:15:37;;;;;;;5.65;3.47;;;;;;;15.73;89.76;98378.13;6241975;28;20054;-71
2023/10/20 00:18:40;;;;;;;4.00;3.08;;;;;;;15.42;92.24;98377.94;6244139;28;20045;-72
2023/10/20 00:21:40;;;;;;;5.05;2.83;;;;;;;15.38;92.58;98374.00;6244976;28;20049;-72
2023/10/20 00:24:44;;;;;;;6.93;3.42;;;;;;;15.32;93.76;98371.06;6245266;28;20076;-72
2023/10/20 00:27:45;;;;;;;5.05;3.20;;;;;;;15.39;93.19;98362.50;6243662;28;20539;-72
2023/10/20 00:30:46;;;;;;;6.50;3.10;;;;;;;15.27;93.81;98362.84;6243682;28;20045;-72
2023/10/20 00:33:49;;;;;;;7.47;3.28;;;;;;;15.30;93.00;98359.88;6243387;28;20068;-72
2023/10/20 00:36:50;;;;;;;7.00;3.28;;;;;;;15.37;92.69;98361.84;6241675;28;20052;-72
2023/10/20 00:39:51;;;;;;;7.93;3.10;;;;;;;15.37;92.63;98367.94;6244060;28;20425;-72
2023/10/20 00:42:54;;;;;;;5.53;3.30;;;;;;;15.43;92.09;98367.25;6242841;28;20485;-72
2023/10/20 00:45:55;;;;;;;8.15;3.03;;;;;;;15.37;91.22;98362.66;6240311;28;20063;-71
2023/10/20 00:48:57;;;;;;;7.13;3.10;;;;;;;15.52;90.89;98352.28;6244052;28;20048;-73
2023/10/20 00:51:59;;;;;;;5.10;3.20;;;;;;;15.42;91.08;98359.53;6241079;28;20132;-72
2023/10/20 00:55:00;;;;;;;9.02;3.38;;;;;;;15.46;90.15;98366.94;6244881;28;20450;-71
2023/10/20 00:58:01;;;;;;;7.53;2.80;;;;;;;15.57;89.89;98355.25;6243824;28;20045;-72
2023/10/20 01:01:04;;;;;;;8.25;3.67;;;;;;;15.44;90.19;98358.41;6260735;28;20061;-72
2023/10/20 01:04:06;;;;;;;7.53;3.15;;;;;;;15.56;89.89;98364.13;6248654;28;20054;-71
2023/10/20 01:07:07;;;;;;;9.27;3.40;;;;;;;15.53;90.02;98356.59;6249254;28;20057;-72
2023/10/20 01:10:09;;;;;;;7.57;3.63;;;;;;;15.52;90.11;98353.16;6249243;28;20137;-71
2023/10/20 01:13:10;;;;;;;;;;;;;;;15.63;89.64;98359.03;6249108;28;20054;-72
2023/10/20 01:16:10;;;;;;;7.22;3.10;;;;;;;15.70;89.49;98354.75;6246882;28;19924;-72
2023/10/20 01:19:11;;;;;;;7.15;2.88;;;;;;;15.60;89.27;98354.09;6249461;28;20052;-71
2023/10/20 01:22:12;;;;;;;7.95;2.97;;;;;;;15.64;89.24;98352.78;6251877;28;20051;-71
2023/10/20 01:25:13;;;;;;;8.32;2.75;;;;;;;15.58;89.54;98358.72;6257303;28;20050;-71
2023/10/20 01:28:17;;;;;;;5.30;2.88;;;;;;;15.65;89.20;98360.50;6245837;28;20049;-71
2023/10/20 01:31:20;;;;;;;6.57;3.50;;;;;;;15.65;89.07;98365.75;6249452;28;20057;-71
2023/10/20 01:34:21;;;;;;;8.63;3.15;;;;;;;15.66;89.40;98375.28;6250317;28;20045;-71
2023/10/20 01:37:22;;;;;;;3.77;2.50;;;;;;;15.57;89.64;98378.91;6248970;28;20417;-71
2023/10/20 01:40:27;;;;;;;10.13;2.72;;;;;;;15.55;90.17;98380.09;6249100;28;20290;-71
2023/10/20 01:43:28;;;;;;;4.93;3.45;;;;;;;15.58;91.68;98374.47;6250127;28;20425;-72
2023/10/20 01:46:29;;;;;;;6.45;3.13;;;;;;;15.46;94.73;98380.09;6248880;28;20053;-72
2023/10/20 01:49:30;;;;;;;5.50;3.00;;;;;;;15.42;96.29;98364.78;6249901;28;20052;-72
2023/10/20 01:52:31;;;;;;;6.00;3.58;;;;;;;15.35;96.76;98361.19;6250138;28;20132;-72
2023/10/20 01:55:33;;;;;;;10.57;3.65;;;;;;;15.20;97.75;98356.59;6249758;28;20128;-72
2023/10/20 01:58:34;;;;;;;5.22;3.13;;;;;;;15.21;98.64;98363.50;6248671;28;20045;-72
2023/10/20 02:01:35;;;;;;;12.80;3.27;;;;;;;15.29;99.03;98352.16;6249651;28;20056;-72
2023/10/20 02:04:36;;;;;;;5.85;3.55;;;;;;;15.18;99.77;98342.81;6249742;28;20080;-72
2023/10/20 02:07:37;;;;;;;6.50;3.30;;;;;;;15.17;100.00;98329.84;6249503;28;20049;-72
2023/10/20 02:10:40;;;;;;;5.15;3.53;;;;;;;15.10;100.00;98327.06;6241963;28;20098;-73
2023/10/20 02:13:44;;;;;;;6.57;3.70;;;;;;;15.08;100.00;98324.59;6238744;28;20095;-73
2023/10/20 02:16:45;;;;;;;5.82;3.05;;;;;;;15.04;100.00;98327.72;6245030;28;20084;-73
2023/10/20 02:19:46;;;;;;;8.05;3.15;;;;;;;15.08;100.00;98314.06;6240003;28;20501;-73
2023/10/20 02:22:50;;;;;;;16.48;4.00;;;;;;;15.13;100.00;98310.94;6244976;28;20045;-73
2023/10/20 02:25:59;;;;;;;6.75;3.30;;;;;;;15.37;99.24;98310.13;6241847;28;20050;-73
2023/10/20 02:29:00;;;;;;;4.95;2.92;;;;;;;15.52;97.46;98299.72;6234749;28;20132;-73
2023/10/20 02:32:01;;;;;;;5.85;3.67;;;;;;;15.30;98.58;98296.81;6231375;28;20050;-73
2023/10/20 02:35:02;;;;;;;5.88;3.47;;;;;;;15.21;99.51;98292.56;6242456;28;20345;-73
2023/10/20 02:38:04;;;;;;;6.88;3.75;;;;;;;15.24;99.21;98297.50;6248360;28;20403;-73
2023/10/20 02:41:05;;;;;;;9.48;3.58;;;;;;;15.21;98.56;98297.81;6241085;28;20057;-72
2023/10/20 02:44:06;;;;;;;9.55;2.97;;;;;;;15.23;98.22;98295.03;6261624;28;20057;-72
2023/10/20 02:47:08;;;;;;;4.82;3.08;;;;;;;15.21;98.66;98294.38;6246587;28;20046;-73
2023/10/20 02:50:10;;;;;;;5.65;3.63;;;;;;;15.30;98.34;98303.91;6246840;28;20080;-72
2023/10/20 02:53:12;;;;;;;7.65;3.80;;;;;;;15.26;98.82;98298.16;6243197;28;20103;-72
2023/10/20 02:56:17;;;;;;;9.50;3.67;;;;;;;15.27;99.16;98285.81;6245571;28;20485;-73
2023/10/20 02:59:18;;;;;;;7.13;3.45;;;;;;;15.18;100.00;98289.47;6245948;28;20053;-73
2023/10/20 03:02:23;;;;;;;5.90;3.60;;;;;;;15.15;100.00;98282.72;6245606;28;20045;-73
2023/10/20 03:05:30;;;;;;;11.00;3.63;;;;;;;15.20;100.00;98276.97;6242996;28;20049;-72
2023/10/20 03:08:31;;;;;;;8.77;3.42;;;;;;;15.27;100.00;98273.50;6243822;28;20482;-73
2023/10/20 03:11:32;;;;;;;7.82;4.03;;;;;;;15.18;100.00;98276.31;6248322;28;20053;-73
2023/10/20 03:14:34;;;;;;;5.38;3.40;;;;;;;15.17;100.00;98270.22;6238286;28;20406;-73
2023/10/20 03:17:36;;;;;;;7.40;3.90;;;;;;;15.21;100.00;98262.84;6243879;28;20041;-72
2023/10/20 03:20:37;;;;;;;9.15;3.88;;;;;;;15.13;100.00;98268.91;6244718;28;20674;-73
2023/10/20 03:23:43;;;;;;;6.25;3.90;;;;;;;15.15;100.00;98261.69;6246286;28;20049;-74
2023/10/20 03:26:44;;;;;;;8.50;3.70;;;;;;;15.14;100.00;98262.69;6246045;28;20108;-73
2023/10/20 03:29:47;;;;;;;10.85;4.20;;;;;;;15.16;100.00;98252.84;6244755;28;20045;-74
2023/10/20 03:32:49;;;;;;;7.10;3.72;;;;;;;15.10;100.00;98262.19;6243725;28;20076;-74
2023/10/20 03:35:59;;;;;;;5.93;3.58;;;;;;;15.15;100.00;98268.75;6243400;28;20050;-73
2023/10/20 03:39:14;;;;;;;8.18;3.97;;;;;;;15.16;100.00;98258.09;6244549;28;20456;-73
2023/10/20 03:42:17;;;;;;;5.95;3.28;;;;;;;15.11;100.00;98263.84;6245465;28;20126;-73
2023/10/20 03:45:18;;;;;;;6.65;4.22;;;;;;;15.14;100.00;98261.88;6246362;28;20116;-73
2023/10/20 03:48:19;;;;;;;7.30;3.67;;;;;;;15.22;100.00;98259.25;6245307;28;20049;-73
2023/10/20 03:51:22;;;;;;;9.90;3.65;;;;;;;15.23;100.00;98259.06;6244913;28;20050;-73
2023/10/20 03:54:24;;;;;;;7.05;3.13;;;;;;;15.27;100.00;98256.91;6239732;28;20053;-73
2023/10/20 03:57:25;;;;;;;8.80;3.05;;;;;;;15.22;100.00;98251.38;6239147;28;20424;-72
2023/10/20 04:00:29;;;;;;;9.77;3.70;;;;;;;15.30;100.00;98249.53;6241300;28;20049;-73
2023/10/20 04:03:30;;;;;;;5.50;3.20;;;;;;;15.34;99.44;98246.56;6247047;28;20049;-73
2023/10/20 04:06:31;;;;;;;11.80;3.22;;;;;;;15.29;98.58;98245.25;6244222;28;20053;-72
2023/10/20 04:09:33;;;;;;;10.57;3.28;;;;;;;15.28;97.82;98248.88;6245063;28;20124;-72
2023/10/20 04:12:36;;;;;;;11.45;3.65;;;;;;;15.41;97.98;98250.16;6243906;28;20049;-72
2023/10/20 04:15:37;;;;;;;5.20;3.10;;;;;;;15.47;97.40;98250.31;6242128;28;20057;-72
2023/10/20 04:18:42;;;;;;;4.75;2.92;;;;;;;15.46;96.84;98243.41;6244359;28;20049;-72
2023/10/20 04:21:48;;;;;;;5.95;3.30;;;;;;;15.50;96.82;98239.47;6241585;28;20490;-72
2023/10/20 04:24:49;;;;;;;5.45;3.47;;;;;;;15.51;96.13;98245.53;6243768;28;20053;-72
2023/10/20 04:28:11;;;;;;;6.47;3.53;;;;;;;15.51;96.14;98238.47;6242167;28;20099;-72
2023/10/20 04:48:14;;;;;;;5.18;3.20;;;;;;;15.69;94.68;98221.66;6246683;28;20052;-72
2023/10/20 04:54:39;;;;;;;6.10;3.65;;;;;;;15.70;93.91;98226.72;6246407;28;20053;-72
2023/10/20 04:57:50;;;;;;;7.07;3.45;;;;;;;15.81;93.38;98235.25;6245316;28;20485;-72
2023/10/20 05:01:03;;;;;;;5.70;3.08;;;;;;;15.83;92.73;98230.66;6248778;28;20128;-73
2023/10/20 05:04:40;;;;;;;6.25;3.30;;;;;;;15.79;92.55;98221.47;6249085;28;20467;-72
2023/10/20 05:07:32;;;;;;;8.40;2.90;;;;;;;15.80;92.22;98226.56;6246405;28;20048;-71
2023/10/20 05:10:32;;;;;;;5.47;3.13;;;;;;;15.90;92.27;98234.25;6249153;28;20053;-72
2023/10/20 05:13:37;;;;;;;9.23;3.53;;;;;;;15.92;92.10;98248.03;6249338;28;20042;-72
2023/10/20 05:16:38;;;;;;;5.55;2.85;;;;;;;15.99;91.11;98235.00;6249491;28;20049;-72
2023/10/20 05:19:39;;;;;;;7.63;3.03;;;;;;;15.97;91.22;98245.69;6250031;28;20121;-72
2023/10/20 05:22:48;;;;;;;14.15;3.97;;;;;;;15.93;91.89;98248.84;6247722;28;20054;-72
2023/10/20 05:25:49;;;;;;;5.80;2.97;;;;;;;16.01;91.28;98252.25;6249256;28;20502;-72
2023/10/20 05:28:50;;;;;;;13.77;3.28;;;;;;;16.08;91.33;98241.84;6250216;28;20053;-73
2023/10/20 05:31:51;;;;;;;6.95;3.10;;;;;;;16.04;91.65;98251.94;6250691;28;20066;-72
2023/10/20 05:34:54;;;;;;;8.68;3.47;;;;;;;16.03;91.12;98249.47;6250497;28;20053;-72
2023/10/20 05:37:54;;;;;;;;;;;;;;;16.10;91.25;98250.41;6250629;28;20050;-73
2023/10/20 05:40:58;;;;;;;10.45;3.10;;;;;;;16.12;90.86;98253.66;6250169;28;19921;-72
2023/10/20 05:44:01;;;;;;;12.80;3.88;;;;;;;16.20;91.17;98248.38;6249014;28;20061;-72
2023/10/20 05:47:02;;;;;;;7.47;3.33;;;;;;;16.19;91.24;98251.19;6249806;28;20072;-72
2023/10/20 05:50:06;;;;;;;5.75;3.03;;;;;;;16.20;91.05;98248.38;6236511;28;20594;-72
2023/10/20 05:53:07;;;;;;;5.43;2.92;;;;;;;16.25;90.30;98261.84;6247354;28;20057;-71
2023/10/20 05:56:09;;;;;;;10.15;2.85;;;;;;;16.30;89.47;98250.78;6250107;28;20049;-72
2023/10/20 05:59:09;;;;;;;5.47;2.70;;;;;;;16.36;90.04;98247.44;6248708;28;20132;-72
2023/10/20 06:02:10;;;;;;;6.38;2.75;;;;;;;16.36;89.04;98251.91;6249943;28;20053;-71
2023/10/20 06:05:11;;;;;;;6.28;3.42;;;;;;;16.37;89.04;98256.16;6248712;28;20072;-71
2023/10/20 06:08:12;;;;;;;6.88;2.97;;;;;;;16.48;88.88;98256.59;6249661;28;20042;-71
2023/10/20 06:11:13;;;;;;;11.43;2.85;;;;;;;16.55;88.94;98258.50;6249507;28;20049;-71
2023/10/20 06:14:14;;;;;;;5.20;3.17;;;;;;;16.51;88.81;98272.03;6249276;28;20137;-71
2023/10/20 06:17:17;;;;;;;7.57;3.33;;;;;;;16.49;88.46;98262.66;6248321;28;20111;-71
2023/10/20 06:20:18;;;;;;;9.43;3.90;;;;;;;16.59;87.65;98273.78;6247866;28;20123;-71
2023/10/20 06:23:19;;;;;;;7.53;2.78;;;;;;;16.66;88.24;98269.47;6248116;28;20501;-71
2023/10/20 06:26:20;;;;;;;8.38;2.70;;;;;;;16.71;88.24;98275.00;6247892;28;20049;-72
2023/10/20 06:32:25;;;;;;;4.68;2.70;;;;;;;16.98;87.07;98277.31;6249039;28;20052;-71
2023/10/20 06:35:32;;;;;;;7.25;2.75;;;;;;;16.97;87.47;98286.22;6248903;28;20564;-72
2023/10/20 06:38:44;;;;;;;4.05;2.50;;;;;;;16.94;86.72;98284.75;6248625;28;20057;-71
2023/10/20 06:41:45;;;;;;;5.65;3.17;;;;;;;16.87;86.91;98281.19;6248867;28;20054;-71
2023/10/20 06:44:47;;;;;;;6.60;2.20;;;;;;;17.06;86.05;98271.97;6247544;28;20473;-72
2023/10/20 06:47:48;;;;;;;4.97;2.57;;;;;;;17.07;86.26;98276.22;6247626;28;20108;-71
2023/10/20 06:50:49;;;;;;;4.30;2.83;;;;;;;17.20;85.94;98283.53;6247292;28;20278;-71
2023/10/20 06:53:49;;;;;;;4.25;2.80;;;;;;;17.30;85.40;98286.75;6248332;28;20053;-71
2023/10/20 06:56:50;;;;;;;6.40;3.15;;;;;;;17.39;85.70;98269.84;6247152;28;20497;-71
2023/10/20 06:59:56;;;;;;;6.30;3.00;;;;;;;17.36;85.40;98277.28;6247477;28;20095;-70
2023/10/20 07:02:57;;;;;;;5.10;2.63;;;;;;;17.32;84.07;98272.38;6248370;28;20053;-71
2023/10/20 07:06:00;;;;;;;6.07;2.83;;;;;;;17.62;83.72;98263.66;6248108;28;20115;-71
2023/10/20 07:09:01;;;;;;;8.70;3.20;;;;;;;17.63;83.18;98262.66;6248132;28;20048;-71
2023/10/20 07:12:03;;;;;;;9.27;2.55;;;;;;;17.71;83.20;98262.56;6247908;28;20053;-71
2023/10/20 07:15:05;;;;;;;;;;;;;;;17.66;83.39;98278.13;6248527;28;20053;-71
2023/10/20 07:18:11;;;;;;;4.75;2.50;;;;;;;17.82;83.25;98266.56;6247679;28;20408;-71
2023/10/20 07:21:12;;;;;;;5.78;2.63;;;;;;;17.86;82.50;98276.59;6247965;28;20122;-71
2023/10/20 07:24:13;;;;;;;7.03;3.00;;;;;;;17.91;82.24;98279.50;6247834;28;20386;-71
2023/10/20 07:27:15;;;;;;;5.90;2.90;;;;;;;18.06;82.17;98278.66;6246713;28;20053;-71
2023/10/20 07:30:18;;;;;;;12.40;3.15;;;;;;;18.16;81.65;98279.19;6246554;28;20053;-71
2023/10/20 07:33:19;;;;;;;4.82;2.70;;;;;;;18.16;81.11;98273.91;6247420;28;20049;-71
2023/10/20 07:36:20;;;;;;;7.85;2.80;;;;;;;18.23;81.06;98276.63;6246403;28;20053;-71
2023/10/20 07:39:22;;;;;;;6.53;2.67;;;;;;;18.15;80.30;98276.75;6245973;28;20453;-71
2023/10/20 07:42:23;;;;;;;;;;;;;;;18.26;81.55;98274.44;6246956;28;20084;-71
2023/10/20 07:45:25;;;;;;;11.88;3.30;;;;;;;18.28;80.59;98268.94;6245925;28;19979;-71
2023/10/20 07:48:26;;;;;;;7.22;3.30;;;;;;;18.32;80.78;98272.84;6246196;28;20053;-71
2023/10/20 07:51:28;;;;;;;6.20;2.30;;;;;;;18.26;80.34;98266.53;6247161;28;20060;-72
2023/10/20 07:54:29;;;;;;;5.70;3.08;;;;;;;18.48;80.11;98269.16;6247475;28;20061;-72
2023/10/20 07:57:30;;;;;;;4.97;2.55;;;;;;;18.59;79.50;98262.56;6247219;28;20052;-72
2023/10/20 08:00:33;;;;;;;11.43;2.70;;;;;;;18.76;79.38;98271.03;6247278;28;20050;-72
2023/10/20 08:03:37;;;;;;;8.20;2.78;;;;;;;18.80;78.62;98273.19;6247040;28;20057;-71
2023/10/20 08:06:38;;;;;;;5.63;2.55;;;;;;;18.66;78.81;98282.75;6245591;28;20493;-71
2023/10/20 08:09:39;;;;;;;4.72;2.42;;;;;;;18.66;78.95;98274.84;6246964;28;20052;-71
2023/10/20 08:12:40;;;;;;;6.85;2.95;;;;;;;18.98;78.37;98272.69;6244775;28;20144;-71
2023/10/20 08:15:42;;;;;;;6.18;2.60;;;;;;;19.04;78.12;98277.22;6247395;28;20489;-72
2023/10/20 08:18:44;;;;;;;;;;;;;;;18.89;78.08;98265.94;6245691;28;20395;-71
2023/10/20 08:21:45;;;;;;;7.88;2.90;;;;;;;18.99;78.07;98276.19;6245582;28;19927;-72
2023/10/20 08:24:46;;;;;;;8.80;2.72;;;;;;;18.88;77.72;98264.28;6246576;28;20049;-71
2023/10/20 08:27:50;;;;;;;4.95;2.78;;;;;;;18.94;77.38;98260.88;6246584;28;20042;-71
2023/10/20 08:30:51;;;;;;;12.93;2.53;;;;;;;18.91;77.99;98267.38;6245335;28;20053;-72
2023/10/20 08:33:52;;;;;;;7.83;2.40;;;;;;;18.97;77.97;98276.38;6245630;28;20053;-72
2023/10/20 08:36:53;;;;;;;10.85;2.47;;;;;;;18.79;78.43;98283.94;6245376;28;20057;-72
2023/10/20 08:39:54;;;;;;;5.07;2.83;;;;;;;18.84;78.03;98278.88;6246174;28;20056;-71
2023/10/20 08:42:55;;;;;;;8.20;2.65;;;;;;;18.77;77.75;98284.06;6246545;28;20092;-71
2023/10/20 08:45:56;;;;;;;12.50;2.95;;;;;;;18.85;78.29;98283.16;6246253;28;20053;-72
2023/10/20 08:49:02;;;;;;;5.13;2.10;;;;;;;18.86;78.23;98288.28;6246489;28;20057;-72
2023/10/20 08:52:05;;;;;;;6.45;2.50;;;;;;;18.77;78.09;98284.06;6246273;28;20072;-71
2023/10/20 08:55:09;;;;;;;13.57;3.22;;;;;;;18.77;78.02;98291.19;6246430;28;20056;-72
2023/10/20 08:58:10;;;;;;;6.53;2.50;;;;;;;18.82;77.48;98280.88;6246077;28;20045;-72
2023/10/20 09:01:10;;;;;;;6.32;2.15;;;;;;;18.91;76.97;98279.75;6246379;28;20084;-72
2023/10/20 09:04:23;;;;;;;6.72;2.47;;;;;;;19.02;76.67;98289.81;6245052;28;20072;-72
2023/10/20 09:07:26;;;;;;;10.02;2.78;;;;;;;19.29;76.18;98292.66;6244925;28;20115;-72
2023/10/20 09:10:27;;;;;;;4.55;2.53;;;;;;;19.40;76.37;98293.97;6246019;28;20057;-72
2023/10/20 09:13:35;;;;;;;9.23;2.50;;;;;;;19.44;75.48;98303.97;6245097;28;20138;-72
2023/10/20 09:16:35;;;;;;;8.43;2.50;;;;;;;19.50;75.55;98311.13;6244897;28;20520;-71
2023/10/20 09:19:36;;;;;;;4.50;2.90;;;;;;;19.71;74.62;98297.03;6244741;28;20080;-72
2023/10/20 09:22:40;;;;;;;6.78;2.67;;;;;;;19.93;74.06;98287.19;6247861;28;20694;-72
2023/10/20 09:25:44;;;;;;;4.85;2.50;;;;;;;19.87;73.89;98290.63;6250478;28;20051;-72
2023/10/20 09:28:53;;;;;;;4.05;2.22;;;;;;;20.13;73.10;98300.47;6250615;28;20046;-72
2023/10/20 09:31:54;;;;;;;10.98;2.83;;;;;;;20.50;72.23;98295.72;6249113;28;20505;-72
2023/10/20 09:34:56;;;;;;;5.73;2.23;;;;;;;20.58;71.73;98302.69;6250370;28;20119;-72
2023/10/20 09:38:04;;;;;;;10.50;2.33;;;;;;;20.91;70.96;98297.44;6250259;28;20052;-72
2023/10/20 09:41:12;;;;;;;6.22;2.53;;;;;;;21.41;68.58;98304.16;6250355;28;20045;-72
2023/10/20 09:44:27;;;;;;;8.88;2.20;;;;;;;21.34;67.81;98296.22;6250080;28;20099;-72
2023/10/20 09:47:31;;;;;;;4.28;2.28;;;;;;;21.13;69.31;98294.59;6249009;28;20041;-72
2023/10/20 09:50:33;;;;;;;8.77;2.35;;;;;;;21.02;68.67;98289.91;6248719;28;20061;-72
2023/10/20 09:53:35;;;;;;;8.93;2.47;;;;;;;20.89;69.41;98296.03;6250177;28;20172;-71
2023/10/20 09:56:36;;;;;;;16.92;2.78;;;;;;;20.76;69.40;98286.22;6248939;28;20493;-71
2023/10/20 09:59:38;;;;;;;7.60;2.40;;;;;;;20.74;69.83;98285.63;6248542;28;20095;-71
2023/10/20 10:02:39;;;;;;;8.82;2.25;;;;;;;20.71;69.49;98275.41;6249669;28;20053;-70
2023/10/20 10:05:40;;;;;;;2.90;2.13;;;;;;;20.67;69.74;98267.06;6248983;28;20468;-71
2023/10/20 10:08:45;;;;;;;14.40;2.80;;;;;;;20.69;70.92;98272.13;6248382;28;20559;-70
2023/10/20 10:11:48;;;;;;;8.57;2.60;;;;;;;20.69;70.53;98257.06;6248072;28;20543;-70
2023/10/20 10:15:05;;;;;;;5.30;2.72;;;;;;;20.65;70.16;98247.91;6249561;28;20064;-72
2023/10/20 10:18:12;;;;;;;6.32;2.65;;;;;;;20.81;69.76;98254.63;6249205;28;20473;-71
2023/10/20 10:21:30;;;;;;;9.77;2.58;;;;;;;20.88;69.74;98252.00;6248015;28;20060;-71
2023/10/20 10:24:36;;;;;;;6.25;2.33;;;;;;;21.00;69.95;98238.91;6248230;28;20049;-71
2023/10/20 10:27:39;;;;;;;4.78;2.10;;;;;;;20.96;70.01;98243.00;6249195;28;21138;-71
2023/10/20 10:30:40;;;;;;;11.27;2.75;;;;;;;21.00;69.64;98237.09;6249180;28;20049;-71
2023/10/20 10:33:43;;;;;;;;;;;;;;;20.98;69.19;98231.19;6248457;28;20103;-71
2023/10/20 10:36:47;;;;;;;5.75;2.20;;;;;;;21.13;69.35;98230.97;6247704;28;19995;-71
2023/10/20 10:39:48;;;;;;;12.80;3.08;;;;;;;21.18;68.64;98231.16;6249053;28;20050;-71
2023/10/20 10:42:53;;;;;;;7.07;2.47;;;;;;;21.33;68.16;98236.22;6248744;28;20057;-70
2023/10/20 10:45:54;;;;;;;10.52;2.85;;;;;;;21.46;67.59;98219.50;6248555;28;20413;-71
2023/10/20 10:49:09;;;;;;;5.40;2.42;;;;;;;21.66;67.93;98222.91;6248434;28;20405;-71
2023/10/20 10:52:10;;;;;;;4.20;2.30;;;;;;;21.76;67.65;98226.94;6249059;28;20083;-71
2023/10/20 10:55:13;;;;;;;7.83;2.40;;;;;;;21.83;66.41;98225.91;6247153;28;20079;-71
2023/10/20 10:58:14;;;;;;;10.75;2.60;;;;;;;21.99;66.93;98226.44;6247048;28;20409;-70
2023/10/20 11:01:18;;;;;;;5.47;2.08;;;;;;;22.01;66.55;98219.91;6247024;28;20060;-71
2023/10/20 11:04:19;;;;;;;7.78;2.40;;;;;;;22.20;66.05;98207.56;6248522;28;20050;-71
2023/10/20 11:07:22;;;;;;;7.95;2.75;;;;;;;22.37;66.05;98207.88;6247001;28;20055;-72
2023/10/20 11:10:28;;;;;;;6.47;2.28;;;;;;;22.52;64.60;98194.28;6248467;28;20085;-71
2023/10/20 11:13:29;;;;;;;14.35;2.47;;;;;;;22.40;65.10;98186.19;6246810;28;20076;-71
2023/10/20 11:16:30;;;;;;;5.20;2.47;;;;;;;22.40;64.44;98183.53;6248131;28;20057;-71
2023/10/20 11:19:31;;;;;;;13.17;2.93;;;;;;;22.36;64.48;98174.34;6246872;28;20052;-70
2023/10/20 11:22:37;;;;;;;6.82;2.33;;;;;;;22.45;65.18;98177.59;6247796;28;20050;-73
2023/10/20 11:25:40;;;;;;;5.63;2.80;;;;;;;22.46;64.62;98161.41;6248283;28;20498;-70
2023/10/20 11:28:41;;;;;;;7.93;2.47;;;;;;;22.60;64.32;98170.09;6246457;28;20045;-71
2023/10/20 11:31:47;;;;;;;9.15;3.38;;;;;;;22.65;64.54;98161.47;6246534;28;20060;-75
2023/10/20 11:34:51;;;;;;;9.35;2.78;;;;;;;22.64;64.02;98171.28;6247451;28;20049;-73
2023/10/20 11:37:53;;;;;;;10.90;3.33;;;;;;;22.76;63.81;98174.06;6247565;28;20482;-74
2023/10/20 11:40:54;;;;;;;12.25;2.30;;;;;;;22.91;63.93;98174.50;6247280;28;20060;-72
2023/10/20 11:43:55;;;;;;;11.55;2.65;;;;;;;22.99;62.96;98185.91;6247463;28;20092;-71
2023/10/20 11:46:58;;;;;;;10.40;3.03;;;;;;;22.98;62.77;98184.28;6247277;28;20053;-72
2023/10/20 11:50:02;;;;;;;12.82;2.60;;;;;;;23.18;63.39;98190.25;6247377;28;20095;-71
2023/10/20 11:53:03;;;;;;;10.13;3.05;;;;;;;23.22;62.17;98183.44;6245943;28;20060;-71
2023/10/20 11:56:06;;;;;;;12.70;2.78;;;;;;;23.27;62.64;98182.81;6247311;28;20053;-71
2023/10/20 11:59:08;;;;;;;8.57;2.35;;;;;;;23.39;62.16;98191.69;6247355;28;20060;-71
2023/10/20 12:02:10;;;;;;;7.68;2.38;;;;;;;23.58;61.25;98179.19;6245591;28;20056;-71
2023/10/20 12:05:10;;;;;;;16.05;3.17;;;;;;;23.85;61.30;98177.03;6245900;28;20180;-71
2023/10/20 12:08:11;;;;;;;8.50;2.80;;;;;;;23.91;60.88;98167.31;6246893;28;20053;-71
2023/10/20 12:11:15;;;;;;;6.45;1.92;;;;;;;23.78;61.45;98160.31;6246696;28;20136;-70
2023/10/20 12:14:15;;;;;;;25.85;3.63;;;;;;;23.79;61.26;98156.63;6246499;28;20087;-72
2023/10/20 12:17:17;;;;;;;10.68;2.58;;;;;;;23.69;61.12;98167.75;6245681;28;20045;-71
2023/10/20 12:20:18;;;;;;;12.32;2.25;;;;;;;23.74;60.50;98148.44;6245252;28;20076;-71
2023/10/20 12:23:19;;;;;;;10.10;2.17;;;;;;;23.59;59.55;98162.16;6246699;28;20050;-71
2023/10/20 12:26:22;;;;;;;10.13;2.15;;;;;;;23.73;59.98;98150.31;6245246;28;20417;-71
2023/10/20 12:29:24;;;;;;;7.32;2.25;;;;;;;23.80;59.25;98163.56;6245130;28;20041;-71
2023/10/20 12:32:27;;;;;;;6.07;2.20;;;;;;;23.86;58.85;98161.84;6246198;28;20049;-71
2023/10/20 12:35:28;;;;;;;7.53;2.25;;;;;;;23.82;58.18;98152.69;6246258;28;20407;-71
2023/10/20 12:38:29;;;;;;;11.32;2.33;;;;;;;23.90;57.95;98150.50;6246362;28;20077;-72
2023/10/20 12:41:32;;;;;;;10.03;2.40;;;;;;;23.99;58.26;98151.03;6244907;28;20416;-71
2023/10/20 12:44:36;;;;;;;8.82;2.22;;;;;;;23.99;58.23;98140.38;6246122;28;20336;-71
2023/10/20 12:47:37;;;;;;;5.03;1.77;;;;;;;23.79;57.94;98132.66;6244810;28;20132;-71
2023/10/20 12:50:41;;;;;;;10.95;2.80;;;;;;;23.81;57.97;98127.09;6244365;28;20057;-71
2023/10/20 12:53:41;;;;;;;13.00;3.10;;;;;;;23.72;58.44;98127.41;6244950;28;20049;-70
2023/10/20 12:56:42;;;;;;;14.27;2.30;;;;;;;23.69;59.01;98111.84;6243020;28;20413;-71
2023/10/20 12:59:43;;;;;;;11.37;2.50;;;;;;;23.67;58.96;98105.94;6246896;28;20083;-71
2023/10/20 13:02:45;;;;;;;8.03;2.33;;;;;;;23.62;58.90;98107.69;6247462;28;20551;-70
2023/10/20 13:05:46;;;;;;;17.42;3.95;;;;;;;23.58;58.81;98101.19;6247583;28;20045;-71
2023/10/20 13:08:47;;;;;;;11.77;2.73;;;;;;;23.57;58.89;98086.22;6241571;28;20132;-71
2023/10/20 13:11:48;;;;;;;6.23;2.10;;;;;;;23.41;59.13;98077.84;6250852;28;20052;-71
2023/10/20 13:14:48;;;;;;;10.57;2.50;;;;;;;23.54;58.98;98088.31;6249290;28;20054;-70
2023/10/20 13:17:49;;;;;;;11.23;2.43;;;;;;;23.57;59.38;98092.34;6249125;28;20050;-70
2023/10/20 13:20:50;;;;;;;6.73;2.47;;;;;;;23.48;58.71;98093.72;6249234;28;20053;-71
2023/10/20 13:23:53;;;;;;;9.97;2.50;;;;;;;23.53;58.93;98094.69;6233111;28;20296;-70
2023/10/20 13:26:53;;;;;;;8.18;2.42;;;;;;;23.59;59.03;98089.47;6248999;28;20362;-71
2023/10/20 13:29:55;;;;;;;14.17;2.17;;;;;;;23.45;59.94;98091.50;6249234;28;20095;-71
2023/10/20 13:32:59;;;;;;;6.25;2.00;;;;;;;23.45;59.20;98102.97;6250244;28;20049;-71
2023/10/20 13:36:04;;;;;;;16.15;2.75;;;;;;;23.42;58.98;98095.44;6239270;28;20140;-70
2023/10/20 13:39:07;;;;;;;4.95;2.03;;;;;;;23.39;58.79;98100.38;6234454;28;20520;-70
2023/10/20 13:42:08;;;;;;;8.77;2.35;;;;;;;23.41;59.32;98095.63;6236252;28;20140;-70
2023/10/20 13:45:12;;;;;;;18.33;2.88;;;;;;;23.45;59.28;98097.66;6237605;28;20505;-70
2023/10/20 13:48:15;;;;;;;7.25;2.10;;;;;;;23.46;59.66;98098.47;6240068;28;20473;-71
2023/10/20 13:51:16;;;;;;;13.05;2.40;;;;;;;23.48;59.97;98091.88;6231182;28;20802;-71
2023/10/20 13:54:17;;;;;;;11.40;2.53;;;;;;;23.49;59.83;98090.84;6238117;28;20046;-71
2023/10/20 13:57:18;;;;;;;8.82;2.35;;;;;;;23.53;60.00;98100.00;6233940;28;20058;-70
2023/10/20 14:00:19;;;;;;;10.37;2.77;;;;;;;23.60;59.79;98096.44;6232566;28;20050;-70
2023/10/20 14:03:19;;;;;;;13.37;2.60;;;;;;;23.64;59.71;98093.09;6225157;28;20053;-71
2023/10/20 14:06:20;;;;;;;7.73;2.37;;;;;;;23.61;59.63;98082.88;6225011;28;20049;-71
2023/10/20 14:09:21;;;;;;;19.77;6.68;;;;;;;23.59;59.46;98084.97;6233568;28;20045;-71
2023/10/20 14:12:22;;;;;;;21.27;6.70;;;;;;;23.56;59.10;98080.09;6232060;28;20057;-71
2023/10/20 14:15:24;;;;;;;12.77;3.23;;;;;;;23.59;59.00;98076.16;6237011;28;20394;-70
2023/10/20 14:18:25;;;;;;;7.97;2.42;;;;;;;23.57;59.49;98080.91;6240273;28;20045;-71
2023/10/20 14:21:26;;;;;;;9.80;2.80;;;;;;;23.61;58.62;98076.75;6237319;28;20518;-71
2023/10/20 14:24:27;;;;;;;20.55;3.05;;;;;;;23.58;58.35;98077.22;6262191;28;20451;-70
2023/10/20 14:27:31;;;;;;;12.13;3.08;;;;;;;23.62;58.68;98071.22;6247609;28;20465;-71
2023/10/20 14:30:32;;;;;;;6.97;2.78;;;;;;;23.71;57.90;98063.72;6249128;28;20055;-71
2023/10/20 14:33:33;;;;;;;7.00;2.40;;;;;;;23.65;57.91;98065.44;6247531;28;20053;-71
2023/10/20 14:36:34;;;;;;;16.27;3.00;;;;;;;23.77;57.61;98070.81;6248990;28;20282;-71
2023/10/20 14:39:37;;;;;;;11.93;2.47;;;;;;;23.71;56.89;98071.69;6248795;28;20049;-73